METAR Data
IDs: Format: Raw Decoded Include TAF

Data at: 0016 UTC 30 May 2020

METAR for:KMRB (Martinsburg/E West V, WV, US)
Text:KMRB 292353Z 18008KT 10SM SCT120 25/19 A2987 RMK AO2 SLP111 60003 T02500189 10283 20217 53001
Temperature: 25.0°C ( 77°F)
Dewpoint: 18.9°C ( 66°F) [RH = 69%]
Pressure (altimeter):29.87 inches Hg (1011.6 mb) [Sea level pressure: 1011.1 mb]
Winds:from the S (180 degrees) at 9 MPH (8 knots; 4.1 m/s)
Visibility:10 or more sm (16+ km)
Ceiling:at least 12,000 feet AGL
Clouds: scattered clouds at 12000 feet AGL